sensor_id;sensor_type;location;lat;lon;timestamp;temperature;humidity
76263;DHT22;65080;50.908;6.916;2023-04-25T00:01:07;10.20;59.60
76263;DHT22;65080;50.908;6.916;2023-04-25T00:03:36;10.20;59.50
76263;DHT22;65080;50.908;6.916;2023-04-25T00:06:06;10.20;59.40
76263;DHT22;65080;50.908;6.916;2023-04-25T00:08:35;10.20;59.40
76263;DHT22;65080;50.908;6.916;2023-04-25T00:11:04;10.20;59.40
76263;DHT22;65080;50.908;6.916;2023-04-25T00:13:32;10.20;60.10
76263;DHT22;65080;50.908;6.916;2023-04-25T00:16:02;10.10;59.50
76263;DHT22;65080;50.908;6.916;2023-04-25T00:18:31;10.20;59.70
76263;DHT22;65080;50.908;6.916;2023-04-25T00:21:00;10.10;59.70
76263;DHT22;65080;50.908;6.916;2023-04-25T00:23:29;10.10;59.60
76263;DHT22;65080;50.908;6.916;2023-04-25T00:25:57;10.00;59.70
76263;DHT22;65080;50.908;6.916;2023-04-25T00:28:26;10.00;59.60
76263;DHT22;65080;50.908;6.916;2023-04-25T00:30:54;10.00;59.80
76263;DHT22;65080;50.908;6.916;2023-04-25T00:33:24;9.90;61.00
76263;DHT22;65080;50.908;6.916;2023-04-25T00:35:52;9.90;61.20
76263;DHT22;65080;50.908;6.916;2023-04-25T00:38:20;9.90;61.20
76263;DHT22;65080;50.908;6.916;2023-04-25T00:40:48;9.80;61.10
76263;DHT22;65080;50.908;6.916;2023-04-25T00:43:16;9.80;61.20
76263;DHT22;65080;50.908;6.916;2023-04-25T00:45:47;9.70;61.30
76263;DHT22;65080;50.908;6.916;2023-04-25T00:48:17;9.70;61.50
76263;DHT22;65080;50.908;6.916;2023-04-25T00:50:52;9.70;61.50
76263;DHT22;65080;50.908;6.916;2023-04-25T00:53:21;9.60;61.40
76263;DHT22;65080;50.908;6.916;2023-04-25T00:55:50;9.60;61.50
76263;DHT22;65080;50.908;6.916;2023-04-25T00:58:19;9.60;61.70
76263;DHT22;65080;50.908;6.916;2023-04-25T01:00:49;9.50;61.70
76263;DHT22;65080;50.908;6.916;2023-04-25T01:03:19;9.50;61.80
76263;DHT22;65080;50.908;6.916;2023-04-25T01:05:49;9.50;61.90
76263;DHT22;65080;50.908;6.916;2023-04-25T01:08:18;9.50;62.10
76263;DHT22;65080;50.908;6.916;2023-04-25T01:10:46;9.50;62.30
76263;DHT22;65080;50.908;6.916;2023-04-25T01:13:15;9.50;62.40
76263;DHT22;65080;50.908;6.916;2023-04-25T01:15:43;9.40;62.60
76263;DHT22;65080;50.908;6.916;2023-04-25T01:18:12;9.40;62.80
76263;DHT22;65080;50.908;6.916;2023-04-25T01:20:41;9.40;63.00
76263;DHT22;65080;50.908;6.916;2023-04-25T01:23:11;9.40;63.20
76263;DHT22;65080;50.908;6.916;2023-04-25T01:25:40;9.30;63.30
76263;DHT22;65080;50.908;6.916;2023-04-25T01:28:09;9.30;63.40
76263;DHT22;65080;50.908;6.916;2023-04-25T01:30:37;9.20;63.40
76263;DHT22;65080;50.908;6.916;2023-04-25T01:33:07;9.20;63.50
76263;DHT22;65080;50.908;6.916;2023-04-25T01:35:36;9.10;63.50
76263;DHT22;65080;50.908;6.916;2023-04-25T01:38:04;9.10;63.60
76263;DHT22;65080;50.908;6.916;2023-04-25T01:40:34;9.00;63.50
76263;DHT22;65080;50.908;6.916;2023-04-25T01:43:06;9.00;63.70
76263;DHT22;65080;50.908;6.916;2023-04-25T01:45:35;9.00;63.70
76263;DHT22;65080;50.908;6.916;2023-04-25T01:48:04;8.90;63.60
76263;DHT22;65080;50.908;6.916;2023-04-25T01:50:32;8.80;63.70
76263;DHT22;65080;50.908;6.916;2023-04-25T01:53:00;8.80;63.80
76263;DHT22;65080;50.908;6.916;2023-04-25T01:55:29;8.80;63.90
76263;DHT22;65080;50.908;6.916;2023-04-25T01:57:59;8.80;64.00
76263;DHT22;65080;50.908;6.916;2023-04-25T02:00:28;8.80;64.10
76263;DHT22;65080;50.908;6.916;2023-04-25T02:02:57;8.70;64.10
76263;DHT22;65080;50.908;6.916;2023-04-25T02:05:26;8.70;64.20
76263;DHT22;65080;50.908;6.916;2023-04-25T02:07:54;8.80;64.40
76263;DHT22;65080;50.908;6.916;2023-04-25T02:10:22;8.70;64.40
76263;DHT22;65080;50.908;6.916;2023-04-25T02:12:51;8.70;64.40
76263;DHT22;65080;50.908;6.916;2023-04-25T02:15:20;8.70;64.40
76263;DHT22;65080;50.908;6.916;2023-04-25T02:17:49;8.70;64.40
76263;DHT22;65080;50.908;6.916;2023-04-25T02:20:17;8.60;64.60
76263;DHT22;65080;50.908;6.916;2023-04-25T02:22:46;8.70;64.90
76263;DHT22;65080;50.908;6.916;2023-04-25T02:25:16;8.60;64.80
76263;DHT22;65080;50.908;6.916;2023-04-25T02:27:46;8.60;64.70
76263;DHT22;65080;50.908;6.916;2023-04-25T02:30:15;8.60;64.70
76263;DHT22;65080;50.908;6.916;2023-04-25T02:32:45;8.60;65.00
76263;DHT22;65080;50.908;6.916;2023-04-25T02:35:13;8.60;65.10
76263;DHT22;65080;50.908;6.916;2023-04-25T02:37:42;8.60;65.00
76263;DHT22;65080;50.908;6.916;2023-04-25T02:40:11;8.60;65.10
76263;DHT22;65080;50.908;6.916;2023-04-25T02:42:39;8.60;65.20
76263;DHT22;65080;50.908;6.916;2023-04-25T02:45:08;8.70;65.20
76263;DHT22;65080;50.908;6.916;2023-04-25T02:47:36;8.70;64.90
76263;DHT22;65080;50.908;6.916;2023-04-25T02:50:07;8.70;64.90
76263;DHT22;65080;50.908;6.916;2023-04-25T02:52:35;8.70;64.90
76263;DHT22;65080;50.908;6.916;2023-04-25T02:55:04;8.70;65.70
76263;DHT22;65080;50.908;6.916;2023-04-25T02:57:33;8.80;65.10
76263;DHT22;65080;50.908;6.916;2023-04-25T03:00:01;8.70;64.90
76263;DHT22;65080;50.908;6.916;2023-04-25T03:02:31;8.70;64.80
76263;DHT22;65080;50.908;6.916;2023-04-25T03:05:00;8.70;64.90
76263;DHT22;65080;50.908;6.916;2023-04-25T03:07:30;8.80;65.00
76263;DHT22;65080;50.908;6.916;2023-04-25T03:09:58;8.70;64.90
76263;DHT22;65080;50.908;6.916;2023-04-25T03:12:26;8.80;64.90
76263;DHT22;65080;50.908;6.916;2023-04-25T03:14:54;8.70;64.80
76263;DHT22;65080;50.908;6.916;2023-04-25T03:17:22;8.70;64.90
76263;DHT22;65080;50.908;6.916;2023-04-25T03:19:51;8.70;65.10
76263;DHT22;65080;50.908;6.916;2023-04-25T03:22:19;8.70;65.00
76263;DHT22;65080;50.908;6.916;2023-04-25T03:24:49;8.60;65.00
76263;DHT22;65080;50.908;6.916;2023-04-25T03:27:17;8.70;65.30
76263;DHT22;65080;50.908;6.916;2023-04-25T03:29:46;8.70;65.20
76263;DHT22;65080;50.908;6.916;2023-04-25T03:32:14;8.60;65.10
76263;DHT22;65080;50.908;6.916;2023-04-25T03:34:42;8.60;65.40
76263;DHT22;65080;50.908;6.916;2023-04-25T03:37:10;8.60;65.40
76263;DHT22;65080;50.908;6.916;2023-04-25T03:39:38;8.70;65.70
76263;DHT22;65080;50.908;6.916;2023-04-25T03:42:08;8.50;65.60
76263;DHT22;65080;50.908;6.916;2023-04-25T03:44:36;8.50;65.70
76263;DHT22;65080;50.908;6.916;2023-04-25T03:47:04;8.60;65.90
76263;DHT22;65080;50.908;6.916;2023-04-25T03:49:34;8.60;66.00
76263;DHT22;65080;50.908;6.916;2023-04-25T03:52:03;8.70;66.00
76263;DHT22;65080;50.908;6.916;2023-04-25T03:54:31;8.70;66.00
76263;DHT22;65080;50.908;6.916;2023-04-25T03:57:00;8.70;66.10
76263;DHT22;65080;50.908;6.916;2023-04-25T03:59:29;8.70;66.10
76263;DHT22;65080;50.908;6.916;2023-04-25T04:01:58;8.70;66.20
76263;DHT22;65080;50.908;6.916;2023-04-25T04:04:26;8.70;66.30
76263;DHT22;65080;50.908;6.916;2023-04-25T04:06:55;8.70;66.40
76263;DHT22;65080;50.908;6.916;2023-04-25T04:09:23;8.80;66.50
76263;DHT22;65080;50.908;6.916;2023-04-25T04:11:51;8.80;66.40
76263;DHT22;65080;50.908;6.916;2023-04-25T04:14:20;8.80;66.40
76263;DHT22;65080;50.908;6.916;2023-04-25T04:16:50;8.80;66.40
76263;DHT22;65080;50.908;6.916;2023-04-25T04:19:19;8.80;66.50
76263;DHT22;65080;50.908;6.916;2023-04-25T04:21:47;8.80;66.50
76263;DHT22;65080;50.908;6.916;2023-04-25T04:24:15;8.80;66.50
76263;DHT22;65080;50.908;6.916;2023-04-25T04:26:44;8.80;66.50
76263;DHT22;65080;50.908;6.916;2023-04-25T04:29:13;8.80;66.60
76263;DHT22;65080;50.908;6.916;2023-04-25T04:31:50;8.80;66.50
76263;DHT22;65080;50.908;6.916;2023-04-25T04:34:19;8.70;66.40
76263;DHT22;65080;50.908;6.916;2023-04-25T04:36:48;8.70;66.60
76263;DHT22;65080;50.908;6.916;2023-04-25T04:39:16;8.60;66.60
76263;DHT22;65080;50.908;6.916;2023-04-25T04:41:44;8.60;66.80
76263;DHT22;65080;50.908;6.916;2023-04-25T04:44:13;8.70;67.00
76263;DHT22;65080;50.908;6.916;2023-04-25T04:46:41;8.80;67.20
76263;DHT22;65080;50.908;6.916;2023-04-25T04:49:12;8.70;66.90
76263;DHT22;65080;50.908;6.916;2023-04-25T04:51:41;8.80;67.00
76263;DHT22;65080;50.908;6.916;2023-04-25T04:54:12;8.80;66.90
76263;DHT22;65080;50.908;6.916;2023-04-25T04:56:40;8.80;66.90
76263;DHT22;65080;50.908;6.916;2023-04-25T04:59:09;8.80;66.90
76263;DHT22;65080;50.908;6.916;2023-04-25T05:01:38;8.80;66.90
76263;DHT22;65080;50.908;6.916;2023-04-25T05:04:06;8.90;67.00
76263;DHT22;65080;50.908;6.916;2023-04-25T05:06:36;8.80;66.90
76263;DHT22;65080;50.908;6.916;2023-04-25T05:09:05;8.80;67.00
76263;DHT22;65080;50.908;6.916;2023-04-25T05:11:33;8.70;67.00
76263;DHT22;65080;50.908;6.916;2023-04-25T05:14:01;8.80;68.00
76263;DHT22;65080;50.908;6.916;2023-04-25T05:16:29;8.80;67.20
76263;DHT22;65080;50.908;6.916;2023-04-25T05:18:58;8.80;67.30
76263;DHT22;65080;50.908;6.916;2023-04-25T05:21:26;8.80;67.30
76263;DHT22;65080;50.908;6.916;2023-04-25T05:23:56;8.90;67.50
76263;DHT22;65080;50.908;6.916;2023-04-25T05:26:25;8.80;67.50
76263;DHT22;65080;50.908;6.916;2023-04-25T05:28:53;8.90;67.40
76263;DHT22;65080;50.908;6.916;2023-04-25T05:31:21;8.90;67.30
76263;DHT22;65080;50.908;6.916;2023-04-25T05:33:49;8.90;67.20
76263;DHT22;65080;50.908;6.916;2023-04-25T05:36:18;9.00;67.30
76263;DHT22;65080;50.908;6.916;2023-04-25T05:38:47;9.00;67.20
76263;DHT22;65080;50.908;6.916;2023-04-25T05:41:16;9.00;67.20
76263;DHT22;65080;50.908;6.916;2023-04-25T05:43:45;9.00;67.80
76263;DHT22;65080;50.908;6.916;2023-04-25T05:46:16;9.00;67.10
76263;DHT22;65080;50.908;6.916;2023-04-25T05:48:44;9.00;67.00
76263;DHT22;65080;50.908;6.916;2023-04-25T05:51:12;9.10;66.90
76263;DHT22;65080;50.908;6.916;2023-04-25T05:53:40;9.10;66.60
76263;DHT22;65080;50.908;6.916;2023-04-25T05:56:09;9.10;66.60
76263;DHT22;65080;50.908;6.916;2023-04-25T05:58:38;9.10;66.60
76263;DHT22;65080;50.908;6.916;2023-04-25T06:01:07;9.10;66.50
76263;DHT22;65080;50.908;6.916;2023-04-25T06:03:35;9.00;66.30
76263;DHT22;65080;50.908;6.916;2023-04-25T06:06:05;9.00;66.30
76263;DHT22;65080;50.908;6.916;2023-04-25T06:08:33;8.90;66.30
76263;DHT22;65080;50.908;6.916;2023-04-25T06:11:02;9.00;66.10
76263;DHT22;65080;50.908;6.916;2023-04-25T06:13:30;9.00;65.90
76263;DHT22;65080;50.908;6.916;2023-04-25T06:16:00;9.00;65.90
76263;DHT22;65080;50.908;6.916;2023-04-25T06:18:28;9.00;66.10
76263;DHT22;65080;50.908;6.916;2023-04-25T06:20:56;9.10;66.20
76263;DHT22;65080;50.908;6.916;2023-04-25T06:23:24;9.20;66.00
76263;DHT22;65080;50.908;6.916;2023-04-25T06:25:52;9.30;65.90
76263;DHT22;65080;50.908;6.916;2023-04-25T06:28:21;9.30;65.60
76263;DHT22;65080;50.908;6.916;2023-04-25T06:30:50;9.40;65.40
76263;DHT22;65080;50.908;6.916;2023-04-25T06:33:19;9.40;65.20
76263;DHT22;65080;50.908;6.916;2023-04-25T06:35:48;9.50;65.10
76263;DHT22;65080;50.908;6.916;2023-04-25T06:38:16;9.60;65.10
76263;DHT22;65080;50.908;6.916;2023-04-25T06:40:44;9.60;65.00
76263;DHT22;65080;50.908;6.916;2023-04-25T06:43:12;9.70;64.70
76263;DHT22;65080;50.908;6.916;2023-04-25T06:45:41;9.70;64.50
76263;DHT22;65080;50.908;6.916;2023-04-25T06:48:13;9.70;64.40
76263;DHT22;65080;50.908;6.916;2023-04-25T06:50:43;9.80;64.30
76263;DHT22;65080;50.908;6.916;2023-04-25T06:53:12;9.90;64.10
76263;DHT22;65080;50.908;6.916;2023-04-25T06:55:40;9.80;63.70
76263;DHT22;65080;50.908;6.916;2023-04-25T06:58:08;10.00;62.70
76263;DHT22;65080;50.908;6.916;2023-04-25T07:00:36;10.00;62.40
76263;DHT22;65080;50.908;6.916;2023-04-25T07:03:05;10.00;62.00
76263;DHT22;65080;50.908;6.916;2023-04-25T07:05:33;10.10;62.00
76263;DHT22;65080;50.908;6.916;2023-04-25T07:08:02;10.10;61.80
76263;DHT22;65080;50.908;6.916;2023-04-25T07:10:31;10.10;61.50
76263;DHT22;65080;50.908;6.916;2023-04-25T07:12:59;10.20;61.20
76263;DHT22;65080;50.908;6.916;2023-04-25T07:15:27;10.20;60.90
76263;DHT22;65080;50.908;6.916;2023-04-25T07:17:56;10.20;60.90
76263;DHT22;65080;50.908;6.916;2023-04-25T07:20:24;10.20;61.00
76263;DHT22;65080;50.908;6.916;2023-04-25T07:22:54;10.20;61.00
76263;DHT22;65080;50.908;6.916;2023-04-25T07:25:24;10.20;60.70
76263;DHT22;65080;50.908;6.916;2023-04-25T07:27:52;10.30;60.70
76263;DHT22;65080;50.908;6.916;2023-04-25T07:30:20;10.30;60.40
76263;DHT22;65080;50.908;6.916;2023-04-25T07:32:49;10.30;60.00
76263;DHT22;65080;50.908;6.916;2023-04-25T07:35:18;10.30;59.80
76263;DHT22;65080;50.908;6.916;2023-04-25T07:37:46;10.30;59.60
76263;DHT22;65080;50.908;6.916;2023-04-25T07:40:14;10.30;59.50
76263;DHT22;65080;50.908;6.916;2023-04-25T07:42:45;10.40;59.40
76263;DHT22;65080;50.908;6.916;2023-04-25T07:45:13;10.50;58.90
76263;DHT22;65080;50.908;6.916;2023-04-25T07:47:42;10.60;58.70
76263;DHT22;65080;50.908;6.916;2023-04-25T07:50:10;10.60;58.30
76263;DHT22;65080;50.908;6.916;2023-04-25T07:52:39;10.60;58.10
76263;DHT22;65080;50.908;6.916;2023-04-25T07:55:08;10.60;58.10
76263;DHT22;65080;50.908;6.916;2023-04-25T07:57:36;10.70;58.00
76263;DHT22;65080;50.908;6.916;2023-04-25T08:00:07;10.70;57.40
76263;DHT22;65080;50.908;6.916;2023-04-25T08:02:38;10.70;57.20
76263;DHT22;65080;50.908;6.916;2023-04-25T08:05:08;10.70;56.80
76263;DHT22;65080;50.908;6.916;2023-04-25T08:07:39;10.70;56.70
76263;DHT22;65080;50.908;6.916;2023-04-25T08:10:08;10.70;56.70
76263;DHT22;65080;50.908;6.916;2023-04-25T08:12:37;10.70;56.60
76263;DHT22;65080;50.908;6.916;2023-04-25T08:15:09;10.80;56.40
76263;DHT22;65080;50.908;6.916;2023-04-25T08:17:37;10.90;56.20
76263;DHT22;65080;50.908;6.916;2023-04-25T08:20:06;11.10;56.20
76263;DHT22;65080;50.908;6.916;2023-04-25T08:22:35;11.00;55.70
76263;DHT22;65080;50.908;6.916;2023-04-25T08:25:04;11.10;55.40
76263;DHT22;65080;50.908;6.916;2023-04-25T08:27:33;11.10;55.20
76263;DHT22;65080;50.908;6.916;2023-04-25T08:30:01;11.20;55.20
76263;DHT22;65080;50.908;6.916;2023-04-25T08:32:31;11.30;55.00
76263;DHT22;65080;50.908;6.916;2023-04-25T08:35:00;11.30;54.80
76263;DHT22;65080;50.908;6.916;2023-04-25T08:37:29;11.30;54.30
76263;DHT22;65080;50.908;6.916;2023-04-25T08:39:57;11.20;54.30
76263;DHT22;65080;50.908;6.916;2023-04-25T08:42:27;11.10;54.40
76263;DHT22;65080;50.908;6.916;2023-04-25T08:44:59;11.20;54.30
76263;DHT22;65080;50.908;6.916;2023-04-25T08:47:34;11.10;54.00
76263;DHT22;65080;50.908;6.916;2023-04-25T08:50:04;11.10;53.60
76263;DHT22;65080;50.908;6.916;2023-04-25T08:52:39;11.10;52.90
76263;DHT22;65080;50.908;6.916;2023-04-25T08:55:12;11.10;52.60
76263;DHT22;65080;50.908;6.916;2023-04-25T08:57:41;11.20;52.40
76263;DHT22;65080;50.908;6.916;2023-04-25T09:00:12;11.30;52.50
76263;DHT22;65080;50.908;6.916;2023-04-25T09:02:42;11.40;52.50
76263;DHT22;65080;50.908;6.916;2023-04-25T09:05:13;11.40;52.20
76263;DHT22;65080;50.908;6.916;2023-04-25T09:07:41;11.40;51.90
76263;DHT22;65080;50.908;6.916;2023-04-25T09:10:10;11.40;51.30
76263;DHT22;65080;50.908;6.916;2023-04-25T09:12:38;11.40;50.90
76263;DHT22;65080;50.908;6.916;2023-04-25T09:15:08;11.40;50.80
76263;DHT22;65080;50.908;6.916;2023-04-25T09:17:36;11.30;50.80
76263;DHT22;65080;50.908;6.916;2023-04-25T09:20:11;11.20;50.60
76263;DHT22;65080;50.908;6.916;2023-04-25T09:22:39;11.30;50.50
76263;DHT22;65080;50.908;6.916;2023-04-25T09:25:11;11.30;50.60
76263;DHT22;65080;50.908;6.916;2023-04-25T09:27:49;11.30;50.50
76263;DHT22;65080;50.908;6.916;2023-04-25T09:30:27;11.30;50.40
76263;DHT22;65080;50.908;6.916;2023-04-25T09:32:56;11.20;50.50
76263;DHT22;65080;50.908;6.916;2023-04-25T09:35:26;11.20;50.30
76263;DHT22;65080;50.908;6.916;2023-04-25T09:37:55;11.20;50.30
76263;DHT22;65080;50.908;6.916;2023-04-25T09:40:24;11.20;50.40
76263;DHT22;65080;50.908;6.916;2023-04-25T09:42:55;11.10;50.30
76263;DHT22;65080;50.908;6.916;2023-04-25T09:45:29;11.20;50.30
76263;DHT22;65080;50.908;6.916;2023-04-25T09:48:03;11.10;50.30
76263;DHT22;65080;50.908;6.916;2023-04-25T09:50:34;11.00;50.20
76263;DHT22;65080;50.908;6.916;2023-04-25T09:53:06;11.00;50.20
76263;DHT22;65080;50.908;6.916;2023-04-25T09:55:35;11.10;50.30
76263;DHT22;65080;50.908;6.916;2023-04-25T09:58:05;11.10;50.30
76263;DHT22;65080;50.908;6.916;2023-04-25T10:00:34;11.10;50.30
76263;DHT22;65080;50.908;6.916;2023-04-25T10:03:02;11.20;50.30
76263;DHT22;65080;50.908;6.916;2023-04-25T10:05:35;11.20;50.30
76263;DHT22;65080;50.908;6.916;2023-04-25T10:08:06;11.30;50.30
76263;DHT22;65080;50.908;6.916;2023-04-25T10:10:35;11.30;50.30
76263;DHT22;65080;50.908;6.916;2023-04-25T10:13:05;11.30;50.20
76263;DHT22;65080;50.908;6.916;2023-04-25T10:15:35;11.30;50.00
76263;DHT22;65080;50.908;6.916;2023-04-25T10:18:06;11.20;50.00
76263;DHT22;65080;50.908;6.916;2023-04-25T10:20:37;11.10;50.10
76263;DHT22;65080;50.908;6.916;2023-04-25T10:23:11;11.10;50.30
76263;DHT22;65080;50.908;6.916;2023-04-25T10:25:41;11.00;50.30
76263;DHT22;65080;50.908;6.916;2023-04-25T10:28:10;11.00;50.40
76263;DHT22;65080;50.908;6.916;2023-04-25T10:30:57;10.90;50.30
76263;DHT22;65080;50.908;6.916;2023-04-25T10:33:32;10.90;50.40
76263;DHT22;65080;50.908;6.916;2023-04-25T10:36:11;10.90;50.40
76263;DHT22;65080;50.908;6.916;2023-04-25T10:38:42;10.90;50.20
76263;DHT22;65080;50.908;6.916;2023-04-25T10:41:11;10.90;50.40
76263;DHT22;65080;50.908;6.916;2023-04-25T10:43:41;11.00;50.40
76263;DHT22;65080;50.908;6.916;2023-04-25T10:46:16;11.00;50.40
76263;DHT22;65080;50.908;6.916;2023-04-25T10:48:47;11.00;50.20
76263;DHT22;65080;50.908;6.916;2023-04-25T10:51:19;11.00;50.30
76263;DHT22;65080;50.908;6.916;2023-04-25T10:53:57;11.10;50.30
76263;DHT22;65080;50.908;6.916;2023-04-25T10:56:28;11.20;50.10
76263;DHT22;65080;50.908;6.916;2023-04-25T10:59:07;11.30;50.10
76263;DHT22;65080;50.908;6.916;2023-04-25T11:01:39;11.40;49.70
76263;DHT22;65080;50.908;6.916;2023-04-25T11:04:19;11.50;49.60
76263;DHT22;65080;50.908;6.916;2023-04-25T11:07:03;11.50;49.30
76263;DHT22;65080;50.908;6.916;2023-04-25T11:09:34;11.50;49.40
76263;DHT22;65080;50.908;6.916;2023-04-25T11:12:03;11.50;49.60
76263;DHT22;65080;50.908;6.916;2023-04-25T11:14:32;11.50;49.60
76263;DHT22;65080;50.908;6.916;2023-04-25T11:17:00;11.50;49.50
76263;DHT22;65080;50.908;6.916;2023-04-25T11:19:29;11.50;49.40
76263;DHT22;65080;50.908;6.916;2023-04-25T11:22:00;11.50;49.10
76263;DHT22;65080;50.908;6.916;2023-04-25T11:24:30;11.30;49.10
76263;DHT22;65080;50.908;6.916;2023-04-25T11:26:59;11.20;48.70
76263;DHT22;65080;50.908;6.916;2023-04-25T11:29:30;11.20;48.60
76263;DHT22;65080;50.908;6.916;2023-04-25T11:31:59;11.20;48.40
76263;DHT22;65080;50.908;6.916;2023-04-25T11:34:28;11.30;48.10
76263;DHT22;65080;50.908;6.916;2023-04-25T11:36:59;11.40;48.00
76263;DHT22;65080;50.908;6.916;2023-04-25T11:39:29;11.60;47.70
76263;DHT22;65080;50.908;6.916;2023-04-25T11:41:57;11.60;47.30
76263;DHT22;65080;50.908;6.916;2023-04-25T11:44:28;11.70;47.20
76263;DHT22;65080;50.908;6.916;2023-04-25T11:46:56;11.70;47.40
76263;DHT22;65080;50.908;6.916;2023-04-25T11:49:30;11.90;47.50
76263;DHT22;65080;50.908;6.916;2023-04-25T11:52:00;12.00;47.50
76263;DHT22;65080;50.908;6.916;2023-04-25T11:54:28;12.20;47.50
76263;DHT22;65080;50.908;6.916;2023-04-25T11:56:56;12.20;47.50
76263;DHT22;65080;50.908;6.916;2023-04-25T11:59:25;12.30;47.40
76263;DHT22;65080;50.908;6.916;2023-04-25T12:01:54;12.40;47.90
76263;DHT22;65080;50.908;6.916;2023-04-25T12:04:25;12.30;47.00
76263;DHT22;65080;50.908;6.916;2023-04-25T12:06:54;12.40;47.30
76263;DHT22;65080;50.908;6.916;2023-04-25T12:09:29;12.40;47.20
76263;DHT22;65080;50.908;6.916;2023-04-25T12:12:00;12.50;46.60
76263;DHT22;65080;50.908;6.916;2023-04-25T12:14:31;12.50;46.00
76263;DHT22;65080;50.908;6.916;2023-04-25T12:17:01;12.50;45.30
76263;DHT22;65080;50.908;6.916;2023-04-25T12:19:32;12.70;44.90
76263;DHT22;65080;50.908;6.916;2023-04-25T12:22:01;12.60;44.10
76263;DHT22;65080;50.908;6.916;2023-04-25T12:24:33;12.60;43.90
76263;DHT22;65080;50.908;6.916;2023-04-25T12:27:06;12.60;43.70
76263;DHT22;65080;50.908;6.916;2023-04-25T12:29:35;12.70;44.00
76263;DHT22;65080;50.908;6.916;2023-04-25T12:32:16;12.90;44.10
76263;DHT22;65080;50.908;6.916;2023-04-25T12:34:45;13.10;43.90
76263;DHT22;65080;50.908;6.916;2023-04-25T12:37:14;13.20;43.40
76263;DHT22;65080;50.908;6.916;2023-04-25T12:39:43;13.40;43.10
76263;DHT22;65080;50.908;6.916;2023-04-25T12:42:12;13.30;42.90
76263;DHT22;65080;50.908;6.916;2023-04-25T12:44:40;13.40;42.80
76263;DHT22;65080;50.908;6.916;2023-04-25T12:47:09;13.50;42.60
76263;DHT22;65080;50.908;6.916;2023-04-25T12:49:37;13.50;42.40
76263;DHT22;65080;50.908;6.916;2023-04-25T12:52:06;13.40;42.20
76263;DHT22;65080;50.908;6.916;2023-04-25T12:54:34;13.20;42.00
76263;DHT22;65080;50.908;6.916;2023-04-25T12:57:04;13.20;42.20
76263;DHT22;65080;50.908;6.916;2023-04-25T12:59:33;13.20;42.20
76263;DHT22;65080;50.908;6.916;2023-04-25T13:02:01;13.10;42.30
76263;DHT22;65080;50.908;6.916;2023-04-25T13:04:30;12.90;42.30
76263;DHT22;65080;50.908;6.916;2023-04-25T13:06:58;12.70;42.40
76263;DHT22;65080;50.908;6.916;2023-04-25T13:09:26;12.50;42.60
76263;DHT22;65080;50.908;6.916;2023-04-25T13:11:55;12.40;42.80
76263;DHT22;65080;50.908;6.916;2023-04-25T13:14:27;12.40;42.90
76263;DHT22;65080;50.908;6.916;2023-04-25T13:16:56;12.30;42.90
76263;DHT22;65080;50.908;6.916;2023-04-25T13:19:24;12.30;42.90
76263;DHT22;65080;50.908;6.916;2023-04-25T13:21:53;12.20;43.00
76263;DHT22;65080;50.908;6.916;2023-04-25T13:24:24;12.10;42.90
76263;DHT22;65080;50.908;6.916;2023-04-25T13:26:52;12.10;43.00
76263;DHT22;65080;50.908;6.916;2023-04-25T13:29:20;12.10;43.10
76263;DHT22;65080;50.908;6.916;2023-04-25T13:31:50;12.20;43.10
76263;DHT22;65080;50.908;6.916;2023-04-25T13:34:19;12.30;43.10
76263;DHT22;65080;50.908;6.916;2023-04-25T13:36:47;12.30;43.10
76263;DHT22;65080;50.908;6.916;2023-04-25T13:39:16;12.40;42.80
76263;DHT22;65080;50.908;6.916;2023-04-25T13:41:44;12.40;42.40
76263;DHT22;65080;50.908;6.916;2023-04-25T13:44:12;12.50;42.30
76263;DHT22;65080;50.908;6.916;2023-04-25T13:46:41;12.50;42.30
76263;DHT22;65080;50.908;6.916;2023-04-25T13:49:15;13.00;42.50
76263;DHT22;65080;50.908;6.916;2023-04-25T13:51:45;13.60;42.00
76263;DHT22;65080;50.908;6.916;2023-04-25T13:54:14;14.10;41.10
76263;DHT22;65080;50.908;6.916;2023-04-25T13:56:42;14.70;40.60
76263;DHT22;65080;50.908;6.916;2023-04-25T13:59:10;14.90;39.80
76263;DHT22;65080;50.908;6.916;2023-04-25T14:01:39;15.10;39.60
76263;DHT22;65080;50.908;6.916;2023-04-25T14:04:08;15.30;39.00
76263;DHT22;65080;50.908;6.916;2023-04-25T14:06:37;15.70;38.40
76263;DHT22;65080;50.908;6.916;2023-04-25T14:09:06;16.00;37.70
76263;DHT22;65080;50.908;6.916;2023-04-25T14:11:37;16.40;37.10
76263;DHT22;65080;50.908;6.916;2023-04-25T14:14:05;16.80;36.60
76263;DHT22;65080;50.908;6.916;2023-04-25T14:16:34;17.30;36.10
76263;DHT22;65080;50.908;6.916;2023-04-25T14:19:02;17.70;35.50
76263;DHT22;65080;50.908;6.916;2023-04-25T14:21:30;17.90;34.80
76263;DHT22;65080;50.908;6.916;2023-04-25T14:24:01;17.70;34.20
76263;DHT22;65080;50.908;6.916;2023-04-25T14:26:33;17.50;34.00
76263;DHT22;65080;50.908;6.916;2023-04-25T14:29:02;17.00;34.20
76263;DHT22;65080;50.908;6.916;2023-04-25T14:31:31;16.60;34.70
76263;DHT22;65080;50.908;6.916;2023-04-25T14:33:59;16.20;34.90
76263;DHT22;65080;50.908;6.916;2023-04-25T14:36:28;15.70;34.90
76263;DHT22;65080;50.908;6.916;2023-04-25T14:38:57;15.40;34.90
76263;DHT22;65080;50.908;6.916;2023-04-25T14:41:27;15.10;34.90
76263;DHT22;65080;50.908;6.916;2023-04-25T14:43:55;15.00;34.90
76263;DHT22;65080;50.908;6.916;2023-04-25T14:46:24;14.90;34.70
76263;DHT22;65080;50.908;6.916;2023-04-25T14:48:53;15.00;35.00
76263;DHT22;65080;50.908;6.916;2023-04-25T14:51:22;15.20;34.60
76263;DHT22;65080;50.908;6.916;2023-04-25T14:53:51;15.40;34.40
76263;DHT22;65080;50.908;6.916;2023-04-25T14:56:20;15.60;34.20
76263;DHT22;65080;50.908;6.916;2023-04-25T14:58:49;15.80;34.00
76263;DHT22;65080;50.908;6.916;2023-04-25T15:01:18;16.10;34.10
76263;DHT22;65080;50.908;6.916;2023-04-25T15:03:47;16.40;34.30
76263;DHT22;65080;50.908;6.916;2023-04-25T15:06:17;16.60;34.50
76263;DHT22;65080;50.908;6.916;2023-04-25T15:08:45;16.70;34.70
76263;DHT22;65080;50.908;6.916;2023-04-25T15:11:13;16.70;34.90
76263;DHT22;65080;50.908;6.916;2023-04-25T15:13:42;16.70;35.20
76263;DHT22;65080;50.908;6.916;2023-04-25T15:16:12;16.70;35.20
76263;DHT22;65080;50.908;6.916;2023-04-25T15:18:40;16.70;35.00
76263;DHT22;65080;50.908;6.916;2023-04-25T15:21:09;16.90;35.00
76263;DHT22;65080;50.908;6.916;2023-04-25T15:23:37;17.00;34.90
76263;DHT22;65080;50.908;6.916;2023-04-25T15:26:06;17.30;35.00
76263;DHT22;65080;50.908;6.916;2023-04-25T15:28:34;17.60;35.00
76263;DHT22;65080;50.908;6.916;2023-04-25T15:31:03;17.90;34.80
76263;DHT22;65080;50.908;6.916;2023-04-25T15:33:33;18.20;34.60
76263;DHT22;65080;50.908;6.916;2023-04-25T15:36:01;18.40;34.30
76263;DHT22;65080;50.908;6.916;2023-04-25T15:38:30;18.40;34.20
76263;DHT22;65080;50.908;6.916;2023-04-25T15:40:58;18.60;33.70
76263;DHT22;65080;50.908;6.916;2023-04-25T15:43:26;18.70;33.60
76263;DHT22;65080;50.908;6.916;2023-04-25T15:45:55;18.80;32.50
76263;DHT22;65080;50.908;6.916;2023-04-25T15:48:23;18.80;32.40
76263;DHT22;65080;50.908;6.916;2023-04-25T15:50:53;18.70;32.40